sensor_id;sensor_type;location;lat;lon;timestamp;P1;durP1;ratioP1;P2;durP2;ratioP2
6926;SDS011;3503;50.07605000;8.86719200;2022-08-19T00:04:00;22.73;;;19.13;;
6926;SDS011;3503;50.07605000;8.86719200;2022-08-19T00:19:05;24.40;;;19.70;;
6926;SDS011;3503;50.07605000;8.86719200;2022-08-19T00:34:08;22.40;;;18.70;;
6926;SDS011;3503;50.07605000;8.86719200;2022-08-19T00:49:12;26.23;;;19.30;;
6926;SDS011;3503;50.07605000;8.86719200;2022-08-19T01:04:18;24.23;;;19.40;;
6926;SDS011;3503;50.07605000;8.86719200;2022-08-19T01:19:23;27.37;;;19.37;;
6926;SDS011;3503;50.07605000;8.86719200;2022-08-19T01:34:30;24.00;;;17.20;;
6926;SDS011;3503;50.07605000;8.86719200;2022-08-19T01:49:35;24.57;;;19.57;;
6926;SDS011;3503;50.07605000;8.86719200;2022-08-19T02:04:38;22.40;;;18.23;;
6926;SDS011;3503;50.07605000;8.86719200;2022-08-19T02:19:41;19.50;;;15.77;;
6926;SDS011;3503;50.07605000;8.86719200;2022-08-19T02:34:44;21.60;;;16.90;;
6926;SDS011;3503;50.07605000;8.86719200;2022-08-19T02:49:48;20.17;;;14.70;;
6926;SDS011;3503;50.07605000;8.86719200;2022-08-19T03:04:51;19.30;;;14.97;;
6926;SDS011;3503;50.07605000;8.86719200;2022-08-19T03:19:53;20.70;;;15.60;;
6926;SDS011;3503;50.07605000;8.86719200;2022-08-19T03:34:56;21.30;;;15.00;;
6926;SDS011;3503;50.07605000;8.86719200;2022-08-19T03:50:00;15.83;;;12.53;;
6926;SDS011;3503;50.07605000;8.86719200;2022-08-19T04:05:03;20.00;;;12.50;;
6926;SDS011;3503;50.07605000;8.86719200;2022-08-19T04:20:09;17.87;;;13.70;;
6926;SDS011;3503;50.07605000;8.86719200;2022-08-19T04:35:12;17.80;;;12.70;;
6926;SDS011;3503;50.07605000;8.86719200;2022-08-19T04:50:15;19.90;;;13.43;;
6926;SDS011;3503;50.07605000;8.86719200;2022-08-19T05:05:18;17.37;;;13.17;;
6926;SDS011;3503;50.07605000;8.86719200;2022-08-19T05:20:22;14.70;;;11.33;;
6926;SDS011;3503;50.07605000;8.86719200;2022-08-19T05:35:42;20.50;;;12.40;;
6926;SDS011;3503;50.07605000;8.86719200;2022-08-19T05:50:46;14.80;;;11.93;;
6926;SDS011;3503;50.07605000;8.86719200;2022-08-19T06:05:51;18.43;;;12.47;;
6926;SDS011;3503;50.07605000;8.86719200;2022-08-19T06:20:56;22.30;;;12.27;;
6926;SDS011;3503;50.07605000;8.86719200;2022-08-19T06:35:59;15.10;;;11.03;;
6926;SDS011;3503;50.07605000;8.86719200;2022-08-19T06:51:02;16.57;;;10.70;;
6926;SDS011;3503;50.07605000;8.86719200;2022-08-19T07:06:07;16.50;;;10.20;;
6926;SDS011;3503;50.07605000;8.86719200;2022-08-19T07:21:12;13.33;;;9.30;;
6926;SDS011;3503;50.07605000;8.86719200;2022-08-19T07:36:18;13.90;;;7.67;;
6926;SDS011;3503;50.07605000;8.86719200;2022-08-19T07:51:23;12.37;;;7.20;;
6926;SDS011;3503;50.07605000;8.86719200;2022-08-19T08:06:26;9.87;;;6.50;;
6926;SDS011;3503;50.07605000;8.86719200;2022-08-19T08:21:46;9.30;;;5.20;;
6926;SDS011;3503;50.07605000;8.86719200;2022-08-19T08:36:49;9.63;;;5.53;;
6926;SDS011;3503;50.07605000;8.86719200;2022-08-19T08:51:57;6.37;;;3.83;;
6926;SDS011;3503;50.07605000;8.86719200;2022-08-19T09:07:07;7.70;;;4.23;;
6926;SDS011;3503;50.07605000;8.86719200;2022-08-19T09:22:17;7.60;;;4.30;;
6926;SDS011;3503;50.07605000;8.86719200;2022-08-19T09:37:22;9.80;;;4.33;;
6926;SDS011;3503;50.07605000;8.86719200;2022-08-19T09:52:25;5.93;;;4.33;;
6926;SDS011;3503;50.07605000;8.86719200;2022-08-19T10:07:30;5.43;;;4.00;;
6926;SDS011;3503;50.07605000;8.86719200;2022-08-19T10:22:32;4.60;;;4.00;;
6926;SDS011;3503;50.07605000;8.86719200;2022-08-19T10:37:37;6.70;;;4.53;;
6926;SDS011;3503;50.07605000;8.86719200;2022-08-19T10:52:41;5.43;;;4.63;;
6926;SDS011;3503;50.07605000;8.86719200;2022-08-19T11:07:44;7.73;;;4.03;;
6926;SDS011;3503;50.07605000;8.86719200;2022-08-19T11:22:47;4.00;;;3.60;;
6926;SDS011;3503;50.07605000;8.86719200;2022-08-19T11:37:50;5.07;;;4.37;;
6926;SDS011;3503;50.07605000;8.86719200;2022-08-19T11:52:54;3.67;;;3.33;;
6926;SDS011;3503;50.07605000;8.86719200;2022-08-19T12:07:58;10.03;;;3.80;;
6926;SDS011;3503;50.07605000;8.86719200;2022-08-19T12:23:00;6.40;;;5.57;;
6926;SDS011;3503;50.07605000;8.86719200;2022-08-19T12:38:03;11.07;;;5.50;;
6926;SDS011;3503;50.07605000;8.86719200;2022-08-19T12:53:06;6.83;;;6.13;;
6926;SDS011;3503;50.07605000;8.86719200;2022-08-19T13:08:09;10.83;;;7.40;;
6926;SDS011;3503;50.07605000;8.86719200;2022-08-19T13:23:13;10.13;;;8.47;;
6926;SDS011;3503;50.07605000;8.86719200;2022-08-19T13:38:16;14.93;;;7.03;;
6926;SDS011;3503;50.07605000;8.86719200;2022-08-19T13:53:22;10.13;;;7.20;;
6926;SDS011;3503;50.07605000;8.86719200;2022-08-19T14:08:26;10.37;;;8.13;;
6926;SDS011;3503;50.07605000;8.86719200;2022-08-19T14:23:29;14.63;;;7.50;;
6926;SDS011;3503;50.07605000;8.86719200;2022-08-19T14:38:32;8.20;;;6.90;;
6926;SDS011;3503;50.07605000;8.86719200;2022-08-19T14:53:35;10.60;;;5.77;;
6926;SDS011;3503;50.07605000;8.86719200;2022-08-19T15:08:39;6.23;;;4.27;;
6926;SDS011;3503;50.07605000;8.86719200;2022-08-19T15:23:44;6.47;;;4.30;;
6926;SDS011;3503;50.07605000;8.86719200;2022-08-19T15:38:47;5.17;;;4.27;;
6926;SDS011;3503;50.07605000;8.86719200;2022-08-19T15:53:51;6.70;;;4.23;;
6926;SDS011;3503;50.07605000;8.86719200;2022-08-19T16:08:57;4.00;;;3.60;;
6926;SDS011;3503;50.07605000;8.86719200;2022-08-19T16:24:03;3.80;;;3.40;;
6926;SDS011;3503;50.07605000;8.86719200;2022-08-19T16:39:08;5.07;;;3.60;;
6926;SDS011;3503;50.07605000;8.86719200;2022-08-19T16:54:11;6.30;;;4.20;;
6926;SDS011;3503;50.07605000;8.86719200;2022-08-19T17:09:14;9.80;;;3.57;;
6926;SDS011;3503;50.07605000;8.86719200;2022-08-19T17:24:18;5.70;;;4.97;;
6926;SDS011;3503;50.07605000;8.86719200;2022-08-19T17:39:21;5.23;;;4.50;;
6926;SDS011;3503;50.07605000;8.86719200;2022-08-19T17:54:26;8.20;;;5.73;;
6926;SDS011;3503;50.07605000;8.86719200;2022-08-19T18:09:30;7.40;;;4.93;;
6926;SDS011;3503;50.07605000;8.86719200;2022-08-19T18:24:37;6.70;;;5.40;;
6926;SDS011;3503;50.07605000;8.86719200;2022-08-19T18:39:40;14.07;;;5.60;;
6926;SDS011;3503;50.07605000;8.86719200;2022-08-19T18:55:01;7.60;;;6.60;;
6926;SDS011;3503;50.07605000;8.86719200;2022-08-19T19:10:04;8.33;;;6.30;;
6926;SDS011;3503;50.07605000;8.86719200;2022-08-19T19:25:08;9.00;;;6.50;;
6926;SDS011;3503;50.07605000;8.86719200;2022-08-19T19:40:12;7.47;;;6.63;;
6926;SDS011;3503;50.07605000;8.86719200;2022-08-19T19:55:15;6.80;;;5.87;;
6926;SDS011;3503;50.07605000;8.86719200;2022-08-19T20:10:19;8.97;;;7.00;;
6926;SDS011;3503;50.07605000;8.86719200;2022-08-19T20:25:22;8.70;;;6.97;;
6926;SDS011;3503;50.07605000;8.86719200;2022-08-19T20:40:25;10.70;;;7.40;;
6926;SDS011;3503;50.07605000;8.86719200;2022-08-19T20:55:28;8.70;;;7.43;;
6926;SDS011;3503;50.07605000;8.86719200;2022-08-19T21:10:31;13.50;;;7.77;;
6926;SDS011;3503;50.07605000;8.86719200;2022-08-19T21:25:34;12.50;;;7.93;;
6926;SDS011;3503;50.07605000;8.86719200;2022-08-19T21:40:37;11.40;;;8.00;;
6926;SDS011;3503;50.07605000;8.86719200;2022-08-19T21:55:40;14.20;;;8.67;;
6926;SDS011;3503;50.07605000;8.86719200;2022-08-19T22:10:43;11.30;;;7.77;;
6926;SDS011;3503;50.07605000;8.86719200;2022-08-19T22:25:46;8.77;;;6.00;;
6926;SDS011;3503;50.07605000;8.86719200;2022-08-19T22:40:49;14.23;;;6.13;;
6926;SDS011;3503;50.07605000;8.86719200;2022-08-19T22:55:53;9.80;;;5.33;;
6926;SDS011;3503;50.07605000;8.86719200;2022-08-19T23:10:56;7.70;;;6.03;;
6926;SDS011;3503;50.07605000;8.86719200;2022-08-19T23:25:59;13.50;;;4.87;;
6926;SDS011;3503;50.07605000;8.86719200;2022-08-19T23:41:03;8.57;;;5.40;;
6926;SDS011;3503;50.07605000;8.86719200;2022-08-19T23:56:08;9.27;;;5.83;;
